createdAt,value
2022-10-13T00:00:55.813Z,7.20
2022-10-13T00:03:23.992Z,7.20
2022-10-13T00:05:52.483Z,7.20
2022-10-13T00:08:26.082Z,7.20
2022-10-13T00:10:54.187Z,7.20
2022-10-13T00:13:22.236Z,7.20
2022-10-13T00:15:50.263Z,7.10
2022-10-13T00:18:19.717Z,7.10
2022-10-13T00:20:49.534Z,7.10
2022-10-13T00:23:18.510Z,7.10
2022-10-13T00:25:48.598Z,7.10
2022-10-13T00:28:19.009Z,7.10
2022-10-13T00:30:47.971Z,7.10
2022-10-13T00:33:16.401Z,7.00
2022-10-13T00:35:47.861Z,7.10
2022-10-13T00:38:17.007Z,7.00
2022-10-13T00:40:47.114Z,7.00
2022-10-13T00:43:20.506Z,7.00
2022-10-13T00:45:50.662Z,7.00
2022-10-13T00:48:20.231Z,7.00
2022-10-13T00:50:50.239Z,7.00
2022-10-13T00:53:21.915Z,7.00
2022-10-13T00:55:52.220Z,7.00
2022-10-13T00:58:23.110Z,7.00
2022-10-13T01:00:53.651Z,7.00
2022-10-13T01:03:22.396Z,7.00
2022-10-13T01:05:54.697Z,7.00
2022-10-13T01:08:26.927Z,7.10
2022-10-13T01:11:04.507Z,7.10
2022-10-13T01:13:40.472Z,7.10
2022-10-13T01:16:14.119Z,7.00
2022-10-13T01:18:49.457Z,7.00
2022-10-13T01:21:25.748Z,7.00
2022-10-13T01:24:29.444Z,7.10
2022-10-13T01:27:31.382Z,7.10
2022-10-13T01:30:19.242Z,7.10
2022-10-13T01:33:00.898Z,7.10
2022-10-13T01:35:37.867Z,7.10
2022-10-13T01:38:10.317Z,7.00
2022-10-13T01:40:43.965Z,7.10
2022-10-13T01:43:17.963Z,7.10
2022-10-13T01:45:51.983Z,7.10
2022-10-13T01:48:21.185Z,7.00
2022-10-13T01:50:50.650Z,7.10
2022-10-13T01:53:20.505Z,7.00
2022-10-13T01:55:53.346Z,7.10
2022-10-13T01:58:21.983Z,7.10
2022-10-13T02:01:14.794Z,7.10
2022-10-13T02:03:53.746Z,7.00
2022-10-13T02:06:25.098Z,7.00
2022-10-13T02:08:59.623Z,7.00
2022-10-13T02:11:29.155Z,7.00
2022-10-13T02:14:04.625Z,7.00
2022-10-13T02:16:37.722Z,7.00
2022-10-13T02:19:07.425Z,7.00
2022-10-13T02:21:36.915Z,7.00
2022-10-13T02:24:06.117Z,7.00
2022-10-13T02:26:35.250Z,7.00
2022-10-13T02:29:10.298Z,7.00
2022-10-13T02:31:40.677Z,7.00
2022-10-13T02:34:08.759Z,7.00
2022-10-13T02:36:37.850Z,7.00
2022-10-13T02:39:06.478Z,7.00
2022-10-13T02:41:34.540Z,7.00
2022-10-13T02:44:02.561Z,7.00
2022-10-13T02:46:30.554Z,7.00
2022-10-13T02:49:00.068Z,6.90
2022-10-13T02:51:28.217Z,6.90
2022-10-13T02:53:56.223Z,6.90
2022-10-13T02:56:24.298Z,6.80
2022-10-13T02:58:52.320Z,6.80
2022-10-13T03:01:20.352Z,6.80
2022-10-13T03:03:48.337Z,6.80
2022-10-13T03:06:17.761Z,6.80
2022-10-13T03:08:45.851Z,6.80
2022-10-13T03:11:13.960Z,6.80
2022-10-13T03:13:41.958Z,6.80
2022-10-13T03:16:10.275Z,6.80
2022-10-13T03:18:38.570Z,6.70
2022-10-13T03:21:08.004Z,6.80
2022-10-13T03:23:37.720Z,6.80
2022-10-13T03:26:06.599Z,6.80
2022-10-13T03:28:34.762Z,6.70
2022-10-13T03:31:04.136Z,6.70
2022-10-13T03:33:32.152Z,6.70
2022-10-13T03:36:01.928Z,6.70
2022-10-13T03:38:30.000Z,6.70
2022-10-13T03:40:59.471Z,6.70
2022-10-13T03:43:27.473Z,6.70
2022-10-13T03:45:59.238Z,6.80
2022-10-13T03:48:28.147Z,6.80
2022-10-13T03:50:56.462Z,6.80
2022-10-13T03:53:24.553Z,6.80
2022-10-13T03:55:53.496Z,6.80
2022-10-13T03:58:23.897Z,6.80
2022-10-13T04:03:22.746Z,6.80
2022-10-13T04:05:50.884Z,6.80
2022-10-13T04:08:19.893Z,6.80
2022-10-13T04:10:47.917Z,6.70
2022-10-13T04:13:15.899Z,6.80
2022-10-13T04:15:45.322Z,6.70
2022-10-13T04:18:13.351Z,6.70
2022-10-13T04:20:41.759Z,6.80
2022-10-13T04:23:09.988Z,6.80
2022-10-13T04:25:38.598Z,6.80
2022-10-13T04:28:07.822Z,6.70
2022-10-13T04:30:36.063Z,6.70
2022-10-13T04:33:05.476Z,6.70
2022-10-13T04:35:33.516Z,6.70
2022-10-13T04:38:01.530Z,6.70
2022-10-13T04:40:29.495Z,6.60
2022-10-13T04:42:57.468Z,6.60
2022-10-13T04:45:25.480Z,6.60
2022-10-13T04:47:53.495Z,6.60
2022-10-13T04:50:22.945Z,6.60
2022-10-13T04:52:50.966Z,6.60
2022-10-13T04:55:19.054Z,6.50
2022-10-13T04:57:47.087Z,6.50
2022-10-13T05:00:15.722Z,6.50
2022-10-13T05:02:43.767Z,6.50
2022-10-13T05:05:12.126Z,6.50
2022-10-13T05:07:41.509Z,6.50
2022-10-13T05:10:10.423Z,6.50
2022-10-13T05:12:38.393Z,6.50
2022-10-13T05:15:07.228Z,6.50
2022-10-13T05:17:35.691Z,6.50
2022-10-13T05:20:04.280Z,6.50
2022-10-13T05:22:32.359Z,6.50
2022-10-13T05:25:01.767Z,6.50
2022-10-13T05:27:29.719Z,6.50
2022-10-13T05:29:57.719Z,6.50
2022-10-13T05:32:25.831Z,6.50
2022-10-13T05:34:53.864Z,6.50
2022-10-13T05:37:22.510Z,6.60
2022-10-13T05:39:50.623Z,6.60
2022-10-13T05:42:20.287Z,6.60
2022-10-13T05:44:48.454Z,6.60
2022-10-13T05:47:16.592Z,6.60
2022-10-13T05:49:44.571Z,6.70
2022-10-13T05:52:13.650Z,6.70
2022-10-13T05:54:46.685Z,6.70
2022-10-13T05:57:20.437Z,6.70
2022-10-13T05:59:51.932Z,6.80
2022-10-13T06:02:23.159Z,6.80
2022-10-13T06:04:54.086Z,6.80
2022-10-13T06:07:22.279Z,6.90
2022-10-13T06:09:50.805Z,6.90
2022-10-13T06:12:20.601Z,7.00
2022-10-13T06:14:48.884Z,7.00
2022-10-13T06:17:16.956Z,7.10
2022-10-13T06:19:46.134Z,7.10
2022-10-13T06:22:14.215Z,7.20
2022-10-13T06:24:42.328Z,7.20
2022-10-13T06:27:10.938Z,7.30
2022-10-13T06:29:40.473Z,7.40
2022-10-13T06:32:08.699Z,7.40
2022-10-13T06:34:36.772Z,7.40
2022-10-13T06:37:04.791Z,7.50
2022-10-13T06:39:32.819Z,7.50
2022-10-13T06:42:00.833Z,7.50
2022-10-13T06:44:28.907Z,7.50
2022-10-13T06:46:58.290Z,7.60
2022-10-13T06:49:26.439Z,7.60
2022-10-13T06:51:54.407Z,7.60
2022-10-13T06:54:22.440Z,7.60
2022-10-13T06:56:51.319Z,7.70
2022-10-13T06:59:19.318Z,7.70
2022-10-13T07:01:48.616Z,7.70
2022-10-13T07:04:18.689Z,7.70
2022-10-13T07:06:46.694Z,7.70
2022-10-13T07:09:14.706Z,7.80
2022-10-13T07:11:45.680Z,7.80
2022-10-13T07:14:14.054Z,7.80
2022-10-13T07:16:42.423Z,7.90
2022-10-13T07:19:10.429Z,7.90
2022-10-13T07:21:39.802Z,7.90
2022-10-13T07:24:09.986Z,8.00
2022-10-13T07:26:38.102Z,8.10
2022-10-13T07:29:06.199Z,8.30
2022-10-13T07:31:34.286Z,8.40
2022-10-13T07:34:04.716Z,8.50
2022-10-13T07:36:52.285Z,8.60
2022-10-13T07:39:20.235Z,8.60
2022-10-13T07:41:51.076Z,8.70
2022-10-13T07:44:19.552Z,8.70
2022-10-13T07:46:47.855Z,8.70
2022-10-13T07:49:16.498Z,8.80
2022-10-13T07:51:44.853Z,9.00
2022-10-13T07:54:14.338Z,9.10
2022-10-13T07:56:42.321Z,9.20
2022-10-13T07:59:10.299Z,9.40
2022-10-13T08:01:38.473Z,9.50
2022-10-13T08:04:06.990Z,9.70
2022-10-13T08:06:35.082Z,9.90
2022-10-13T08:09:04.370Z,10.00
2022-10-13T08:11:33.890Z,10.20
2022-10-13T08:14:02.023Z,10.30
2022-10-13T08:16:31.106Z,10.60
2022-10-13T08:18:59.987Z,10.70
2022-10-13T08:24:18.525Z,10.80
2022-10-13T08:26:48.625Z,11.00
2022-10-13T08:29:21.907Z,11.10
2022-10-13T08:31:50.607Z,11.30
2022-10-13T08:34:18.763Z,11.40
2022-10-13T08:36:47.359Z,11.50
2022-10-13T08:39:15.547Z,11.60
2022-10-13T08:41:45.184Z,11.60
2022-10-13T08:47:19.479Z,11.80
2022-10-13T08:49:47.706Z,11.90
2022-10-13T08:52:20.838Z,12.10
2022-10-13T08:54:49.615Z,12.30
2022-10-13T08:57:18.728Z,12.50
2022-10-13T08:59:48.996Z,12.80
2022-10-13T09:02:27.099Z,13.10
2022-10-13T09:04:55.406Z,13.30
2022-10-13T09:07:27.710Z,13.40
2022-10-13T09:09:56.713Z,13.50
2022-10-13T09:12:25.903Z,13.60
2022-10-13T09:15:05.112Z,13.70
2022-10-13T09:17:34.442Z,13.90
2022-10-13T09:20:05.473Z,13.90
2022-10-13T09:22:35.794Z,13.90
2022-10-13T09:25:18.193Z,13.90
2022-10-13T09:27:49.311Z,14.00
2022-10-13T09:30:33.966Z,14.10
2022-10-13T09:33:21.845Z,14.20
2022-10-13T09:36:06.397Z,14.30
2022-10-13T09:38:35.879Z,14.40
2022-10-13T09:41:07.296Z,14.40
2022-10-13T09:43:38.663Z,14.60
2022-10-13T09:46:17.872Z,14.60
2022-10-13T09:48:50.205Z,14.70
2022-10-13T09:51:34.166Z,14.80
2022-10-13T09:54:02.232Z,14.90
2022-10-13T09:56:36.190Z,15.00
2022-10-13T09:59:15.828Z,15.10
2022-10-13T10:01:49.746Z,15.20
2022-10-13T10:04:23.075Z,15.30
2022-10-13T10:06:51.138Z,15.30
2022-10-13T10:09:37.689Z,15.40
2022-10-13T10:12:07.290Z,15.50
2022-10-13T10:14:38.392Z,15.80
2022-10-13T10:17:18.547Z,16.00
2022-10-13T10:19:56.845Z,16.20
2022-10-13T10:22:37.058Z,16.30
2022-10-13T10:25:22.831Z,16.40
2022-10-13T10:28:03.598Z,16.40
2022-10-13T10:30:32.426Z,16.40
2022-10-13T10:33:10.202Z,16.40
2022-10-13T10:35:46.036Z,16.40
2022-10-13T10:38:28.178Z,16.40
2022-10-13T10:41:06.069Z,16.40
2022-10-13T10:43:43.984Z,16.30
2022-10-13T10:46:18.161Z,16.20
2022-10-13T10:48:50.419Z,16.20
2022-10-13T10:51:19.814Z,16.30
2022-10-13T10:53:57.203Z,16.40
2022-10-13T10:56:31.601Z,16.40
2022-10-13T10:59:10.456Z,16.50
2022-10-13T11:01:43.554Z,16.50
2022-10-13T11:04:40.243Z,16.40
2022-10-13T11:07:35.074Z,16.50
2022-10-13T11:10:21.479Z,16.60
2022-10-13T11:13:22.539Z,16.70
2022-10-13T11:15:51.053Z,16.80
2022-10-13T11:18:55.578Z,17.00
2022-10-13T11:21:25.032Z,17.20
2022-10-13T11:23:53.205Z,17.20
2022-10-13T11:26:31.210Z,17.30
2022-10-13T11:28:59.928Z,17.50
2022-10-13T11:31:33.706Z,17.60
2022-10-13T11:34:04.633Z,17.70
2022-10-13T11:36:52.211Z,17.70
2022-10-13T11:39:51.621Z,17.60
2022-10-13T11:42:40.051Z,17.50
2022-10-13T11:45:21.776Z,17.50
2022-10-13T11:50:48.467Z,17.60
2022-10-13T11:53:19.391Z,17.70
2022-10-13T11:55:51.572Z,17.60
2022-10-13T11:58:22.615Z,17.50
2022-10-13T12:00:55.564Z,17.50
2022-10-13T12:03:28.770Z,17.40
2022-10-13T12:06:01.432Z,17.40
2022-10-13T12:08:33.686Z,17.30
2022-10-13T12:11:05.829Z,17.30
2022-10-13T12:13:35.186Z,17.40
2022-10-13T12:16:06.215Z,17.40
2022-10-13T12:18:38.161Z,17.50
2022-10-13T12:21:12.339Z,17.50
2022-10-13T12:23:41.989Z,17.50
2022-10-13T12:26:17.119Z,17.40
2022-10-13T12:28:50.665Z,17.30
2022-10-13T12:31:21.892Z,17.20
2022-10-13T12:33:58.202Z,17.20
2022-10-13T12:36:31.036Z,17.10
2022-10-13T12:39:05.074Z,17.10
2022-10-13T12:41:36.258Z,17.20
2022-10-13T12:44:06.805Z,17.20
2022-10-13T12:46:39.926Z,17.20
2022-10-13T12:49:08.399Z,17.20
2022-10-13T12:51:39.437Z,17.20
2022-10-13T12:54:10.590Z,17.10
2022-10-13T12:56:38.662Z,17.10
2022-10-13T12:59:07.112Z,17.10
2022-10-13T13:01:35.944Z,17.20
2022-10-13T13:04:18.189Z,17.30
2022-10-13T13:06:56.898Z,17.40
2022-10-13T13:09:31.567Z,17.40
2022-10-13T13:12:24.771Z,17.40
2022-10-13T13:14:55.149Z,17.40
2022-10-13T13:20:23.290Z,17.30
2022-10-13T13:22:51.970Z,17.20
2022-10-13T13:25:21.474Z,17.20
2022-10-13T13:27:49.520Z,17.20
2022-10-13T13:30:19.088Z,17.10
2022-10-13T13:32:47.389Z,17.00
2022-10-13T13:35:15.782Z,17.00
2022-10-13T13:37:47.860Z,16.90
2022-10-13T13:40:19.208Z,16.90
2022-10-13T13:42:48.636Z,16.90
2022-10-13T13:45:18.012Z,16.80
2022-10-13T13:47:46.146Z,16.80
2022-10-13T13:50:18.503Z,16.70
2022-10-13T13:52:46.563Z,16.70
2022-10-13T13:55:14.885Z,16.70
2022-10-13T13:57:43.354Z,16.70
2022-10-13T14:00:15.376Z,16.70
2022-10-13T14:02:44.880Z,16.70
2022-10-13T14:05:13.480Z,16.70
2022-10-13T14:07:41.943Z,16.70
2022-10-13T14:10:11.368Z,16.70
2022-10-13T14:12:39.742Z,16.70
2022-10-13T14:15:08.860Z,16.70
2022-10-13T14:17:38.273Z,16.70
2022-10-13T14:20:07.397Z,16.70
2022-10-13T14:22:37.798Z,16.70
2022-10-13T14:25:06.584Z,16.70
2022-10-13T14:27:34.964Z,16.70
2022-10-13T14:30:03.287Z,16.60
2022-10-13T14:32:31.290Z,16.70
2022-10-13T14:35:00.897Z,16.60
2022-10-13T14:37:33.082Z,16.70
2022-10-13T14:40:01.852Z,16.70
2022-10-13T14:42:29.970Z,16.60
2022-10-13T14:44:58.254Z,16.70
2022-10-13T14:47:26.289Z,16.60
2022-10-13T14:49:54.462Z,16.70
2022-10-13T14:52:24.452Z,16.60
2022-10-13T14:54:52.623Z,16.60
2022-10-13T14:57:21.099Z,16.60
2022-10-13T14:59:49.392Z,16.50
2022-10-13T15:02:18.021Z,16.50
2022-10-13T15:04:46.147Z,16.40
2022-10-13T15:07:14.668Z,16.40
2022-10-13T15:09:53.145Z,16.30
2022-10-13T15:12:29.215Z,16.20
2022-10-13T15:14:57.371Z,16.20
2022-10-13T15:17:25.520Z,16.10
2022-10-13T15:19:53.773Z,16.10
2022-10-13T15:22:22.062Z,16.00
2022-10-13T15:24:51.837Z,15.90
2022-10-13T15:27:19.962Z,15.90
2022-10-13T15:29:48.212Z,15.90
2022-10-13T15:32:18.543Z,15.80
2022-10-13T15:37:52.816Z,15.70
2022-10-13T15:40:22.412Z,15.70
2022-10-13T15:42:50.429Z,15.60
2022-10-13T15:45:18.570Z,15.50
2022-10-13T15:47:46.575Z,15.40
2022-10-13T15:50:15.091Z,15.30
2022-10-13T15:52:43.223Z,15.20
2022-10-13T15:55:13.336Z,15.10
2022-10-13T15:57:42.748Z,15.00
2022-10-13T16:00:13.604Z,14.90
2022-10-13T16:02:41.641Z,14.90
2022-10-13T16:05:11.602Z,14.80
2022-10-13T16:07:41.500Z,14.70
2022-10-13T16:10:10.757Z,14.60
2022-10-13T16:12:39.234Z,14.50
2022-10-13T16:15:10.430Z,14.40
2022-10-13T16:17:39.021Z,14.30
2022-10-13T16:20:08.890Z,14.20
2022-10-13T16:22:36.875Z,14.20
2022-10-13T16:25:05.154Z,14.10
2022-10-13T16:27:33.612Z,14.00
2022-10-13T16:30:01.643Z,13.90
2022-10-13T16:32:31.003Z,13.80
2022-10-13T16:34:58.981Z,13.80
2022-10-13T16:37:27.022Z,13.70
2022-10-13T16:39:55.057Z,13.60
2022-10-13T16:42:23.059Z,13.60
2022-10-13T16:44:51.021Z,13.60
2022-10-13T16:47:19.056Z,13.50
2022-10-13T16:49:48.565Z,13.50
2022-10-13T16:52:16.593Z,13.50
2022-10-13T16:54:44.673Z,13.40
2022-10-13T16:57:12.613Z,13.40
2022-10-13T16:59:40.577Z,13.30
2022-10-13T17:02:11.497Z,13.30
2022-10-13T17:04:39.443Z,13.30
2022-10-13T17:07:08.837Z,13.20
2022-10-13T17:09:36.797Z,13.20
2022-10-13T17:12:04.871Z,13.20
2022-10-13T17:14:32.916Z,13.10
2022-10-13T17:17:00.882Z,13.10
2022-10-13T17:19:28.864Z,13.10
2022-10-13T17:21:56.803Z,13.10
2022-10-13T17:24:26.202Z,13.00
2022-10-13T17:26:54.230Z,13.10
2022-10-13T17:29:22.203Z,13.10
2022-10-13T17:31:50.218Z,13.00
2022-10-13T17:34:18.171Z,13.00
2022-10-13T17:36:46.180Z,13.00
2022-10-13T17:39:14.193Z,12.90
2022-10-13T17:41:43.705Z,12.90
2022-10-13T17:44:12.379Z,12.90
2022-10-13T17:46:40.456Z,12.90
2022-10-13T17:49:10.960Z,12.80
2022-10-13T17:51:39.310Z,12.80
2022-10-13T17:54:11.477Z,12.80
2022-10-13T17:56:44.227Z,12.80
2022-10-13T17:59:12.219Z,12.80
2022-10-13T18:01:41.939Z,12.70
2022-10-13T18:04:13.613Z,12.70
2022-10-13T18:06:43.970Z,12.70
2022-10-13T18:09:14.562Z,12.70
2022-10-13T18:11:49.907Z,12.70
2022-10-13T18:14:19.068Z,12.60
2022-10-13T18:16:47.139Z,12.60
2022-10-13T18:19:15.239Z,12.60
2022-10-13T18:21:43.217Z,12.60
2022-10-13T18:24:11.896Z,12.60
2022-10-13T18:26:39.943Z,12.60
2022-10-13T18:29:11.285Z,12.60
2022-10-13T18:31:41.705Z,12.60
2022-10-13T18:34:11.998Z,12.50
2022-10-13T18:36:41.907Z,12.50
2022-10-13T18:39:13.190Z,12.50
2022-10-13T18:41:41.846Z,12.50
2022-10-13T18:44:11.495Z,12.40
2022-10-13T18:46:40.550Z,12.40
2022-10-13T18:49:12.341Z,12.40
2022-10-13T18:51:40.807Z,12.40
2022-10-13T18:54:09.605Z,12.40
2022-10-13T18:56:37.817Z,12.30
2022-10-13T18:59:07.659Z,12.30
2022-10-13T19:01:38.992Z,12.30
2022-10-13T19:04:08.628Z,12.30
2022-10-13T19:06:36.930Z,12.30
2022-10-13T19:09:07.124Z,12.30
2022-10-13T19:11:36.269Z,12.30
2022-10-13T19:14:06.951Z,12.30
2022-10-13T19:16:39.865Z,12.20
2022-10-13T19:19:09.245Z,12.20
2022-10-13T19:21:37.964Z,12.20
2022-10-13T19:24:06.613Z,12.20
2022-10-13T19:26:36.574Z,12.10
2022-10-13T19:29:07.044Z,12.10
2022-10-13T19:31:38.450Z,12.10
2022-10-13T19:34:06.422Z,12.10
2022-10-13T19:36:37.687Z,12.10
2022-10-13T19:39:09.250Z,12.10
2022-10-13T19:41:38.821Z,12.00
2022-10-13T19:44:06.986Z,12.00
2022-10-13T19:46:37.283Z,11.90
2022-10-13T19:49:05.788Z,11.90
2022-10-13T19:51:34.091Z,11.80
2022-10-13T19:54:02.182Z,11.80
2022-10-13T19:56:32.864Z,11.70
2022-10-13T19:59:01.330Z,11.70
2022-10-13T20:01:29.644Z,11.70
2022-10-13T20:03:59.459Z,11.70
2022-10-13T20:06:27.668Z,11.60
2022-10-13T20:08:55.655Z,11.60
2022-10-13T20:11:24.473Z,11.50
2022-10-13T20:13:53.770Z,11.50
2022-10-13T20:16:24.294Z,11.50
2022-10-13T20:18:53.828Z,11.50
2022-10-13T20:21:24.239Z,11.50
2022-10-13T20:23:52.992Z,11.40
2022-10-13T20:26:21.771Z,11.40
2022-10-13T20:28:51.227Z,11.40
2022-10-13T20:31:22.238Z,11.30
2022-10-13T20:33:53.921Z,11.30
2022-10-13T20:36:24.024Z,11.30
2022-10-13T20:38:52.229Z,11.30
2022-10-13T20:41:22.177Z,11.20
2022-10-13T20:43:50.972Z,11.20
2022-10-13T20:46:20.470Z,11.20
2022-10-13T20:51:39.196Z,11.10
2022-10-13T20:54:07.963Z,11.10
2022-10-13T20:56:36.033Z,11.10
2022-10-13T20:59:04.634Z,11.00
2022-10-13T21:01:33.653Z,11.00
2022-10-13T21:04:01.688Z,11.00
2022-10-13T21:06:29.855Z,11.00
2022-10-13T21:08:59.202Z,11.00
2022-10-13T21:11:27.198Z,11.00
2022-10-13T21:13:55.264Z,11.00
2022-10-13T21:16:27.392Z,11.00
2022-10-13T21:18:56.917Z,11.00
2022-10-13T21:21:26.864Z,11.00
2022-10-13T21:23:56.698Z,11.00
2022-10-13T21:26:27.616Z,11.00
2022-10-13T21:28:55.742Z,11.00
2022-10-13T21:31:24.991Z,11.00
2022-10-13T21:33:53.244Z,11.00
2022-10-13T21:36:23.047Z,11.00
2022-10-13T21:38:53.815Z,11.00
2022-10-13T21:41:22.756Z,11.10
2022-10-13T21:43:53.232Z,11.00
2022-10-13T21:46:23.443Z,11.10
2022-10-13T21:48:53.422Z,11.00
2022-10-13T21:51:23.462Z,11.00
2022-10-13T21:53:52.872Z,11.00
2022-10-13T21:56:21.768Z,11.00
2022-10-13T21:58:51.336Z,11.00
2022-10-13T22:01:20.600Z,11.00
2022-10-13T22:03:49.360Z,10.90
2022-10-13T22:06:19.772Z,10.90
2022-10-13T22:08:50.673Z,10.90
2022-10-13T22:11:19.969Z,10.90
2022-10-13T22:13:48.197Z,10.90
2022-10-13T22:16:19.938Z,10.80
2022-10-13T22:18:48.724Z,10.80
2022-10-13T22:21:18.414Z,10.80
2022-10-13T22:23:47.459Z,10.80
2022-10-13T22:26:16.991Z,10.80
2022-10-13T22:28:45.325Z,10.80
2022-10-13T22:31:15.221Z,10.70
2022-10-13T22:33:45.089Z,10.70
2022-10-13T22:36:16.986Z,10.70
2022-10-13T22:38:45.786Z,10.70
2022-10-13T22:41:14.795Z,10.70
2022-10-13T22:43:44.385Z,10.70
2022-10-13T22:46:12.620Z,10.70
2022-10-13T22:48:41.788Z,10.60
2022-10-13T22:51:12.672Z,10.60
2022-10-13T22:53:41.054Z,10.60
2022-10-13T22:56:11.597Z,10.60
2022-10-13T22:58:40.236Z,10.60
2022-10-13T23:01:09.640Z,10.70
2022-10-13T23:03:38.110Z,10.70
2022-10-13T23:06:07.626Z,10.70
2022-10-13T23:08:36.914Z,10.70
2022-10-13T23:11:04.951Z,10.70
2022-10-13T23:13:32.998Z,10.70
2022-10-13T23:16:05.401Z,10.70
2022-10-13T23:18:33.407Z,10.70
2022-10-13T23:21:04.600Z,10.70
2022-10-13T23:23:32.516Z,10.70
2022-10-13T23:26:05.358Z,10.70
2022-10-13T23:28:33.836Z,10.70
2022-10-13T23:31:02.882Z,10.80
2022-10-13T23:33:31.123Z,10.70
2022-10-13T23:36:01.271Z,10.70
2022-10-13T23:38:31.052Z,10.70
2022-10-13T23:41:05.855Z,10.70
2022-10-13T23:43:33.852Z,10.80
2022-10-13T23:46:02.073Z,10.80
2022-10-13T23:48:30.373Z,10.80
2022-10-13T23:50:58.473Z,10.80
2022-10-13T23:53:26.410Z,10.80
2022-10-13T23:55:54.352Z,10.70
2022-10-13T23:58:23.639Z,10.70
